createdAt,value
2022-11-28T00:01:20.203Z,100836.38
2022-11-28T00:03:48.116Z,100833.16
2022-11-28T00:06:16.329Z,100842.59
2022-11-28T00:08:44.433Z,100841.16
2022-11-28T00:11:14.293Z,100831.47
2022-11-28T00:13:42.450Z,100837.97
2022-11-28T00:16:17.174Z,100836.38
2022-11-28T00:18:46.577Z,100822.75
2022-11-28T00:21:16.279Z,100822.75
2022-11-28T00:23:45.444Z,100825.88
2022-11-28T00:26:17.703Z,100813.31
2022-11-28T00:28:45.593Z,100819.03
2022-11-28T00:31:14.998Z,100811.50
2022-11-28T00:33:43.017Z,100810.72
2022-11-28T00:36:12.398Z,100800.19
2022-11-28T00:38:40.349Z,100796.69
2022-11-28T00:41:10.188Z,100802.09
2022-11-28T00:43:38.572Z,100794.59
2022-11-28T00:46:07.228Z,100784.25
2022-11-28T00:48:35.620Z,100786.97
2022-11-28T00:51:07.743Z,100790.78
2022-11-28T00:53:37.549Z,100772.31
2022-11-28T00:56:06.559Z,100768.50
2022-11-28T00:58:34.773Z,100762.63
2022-11-28T01:01:09.054Z,100767.00
2022-11-28T01:03:36.976Z,100758.81
2022-11-28T01:06:05.460Z,100751.69
2022-11-28T01:08:33.280Z,100757.59
2022-11-28T01:11:02.566Z,100758.88
2022-11-28T01:13:30.661Z,100761.41
2022-11-28T01:15:58.837Z,100756.00
2022-11-28T01:18:26.755Z,100756.00
2022-11-28T01:20:54.483Z,100749.97
2022-11-28T01:23:22.285Z,100747.88
2022-11-28T01:25:50.083Z,100742.16
2022-11-28T01:28:19.294Z,100740.56
2022-11-28T01:30:47.081Z,100742.97
2022-11-28T01:33:14.904Z,100747.25
2022-11-28T01:35:42.795Z,100748.38
2022-11-28T01:38:10.595Z,100749.97
2022-11-28T01:40:45.248Z,100751.38
2022-11-28T01:43:13.276Z,100759.19
2022-11-28T01:45:42.527Z,100755.19
2022-11-28T01:48:12.931Z,100754.41
2022-11-28T01:50:41.782Z,100756.97
2022-11-28T01:53:12.093Z,100759.59
2022-11-28T01:55:47.705Z,100754.16
2022-11-28T01:58:16.108Z,100746.53
2022-11-28T02:00:45.495Z,100741.44
2022-11-28T02:03:18.855Z,100737.13
2022-11-28T02:05:48.457Z,100743.97
2022-11-28T02:08:16.260Z,100737.75
2022-11-28T02:10:54.960Z,100738.97
2022-11-28T02:13:37.163Z,100723.53
2022-11-28T02:16:29.160Z,100729.53
2022-11-28T02:19:10.179Z,100717.00
2022-11-28T02:21:51.627Z,100715.88
2022-11-28T02:24:46.289Z,100745.16
2022-11-28T02:27:48.927Z,100749.97
2022-11-28T02:30:20.846Z,100759.09
2022-11-28T02:33:17.588Z,100756.19
2022-11-28T02:35:56.826Z,100769.91
2022-11-28T02:38:36.684Z,100783.63
2022-11-28T02:41:10.015Z,100775.72
2022-11-28T02:43:45.205Z,100767.41
2022-11-28T02:46:17.861Z,100762.78
2022-11-28T02:48:51.246Z,100768.19
2022-11-28T02:51:25.118Z,100768.19
2022-11-28T02:53:54.859Z,100756.88
2022-11-28T02:56:25.401Z,100743.44
2022-11-28T02:58:54.842Z,100737.06
2022-11-28T03:01:27.020Z,100741.34
2022-11-28T03:04:10.537Z,100742.56
2022-11-28T03:06:48.118Z,100739.84
2022-11-28T03:09:32.144Z,100732.34
2022-11-28T03:12:11.192Z,100731.97
2022-11-28T03:14:52.193Z,100733.88
2022-11-28T03:17:32.626Z,100737.16
2022-11-28T03:20:16.127Z,100746.19
2022-11-28T03:22:50.786Z,100751.41
2022-11-28T03:25:28.760Z,100748.59
2022-11-28T03:28:04.976Z,100744.78
2022-11-28T03:30:39.171Z,100740.97
2022-11-28T03:33:08.039Z,100744.16
2022-11-28T03:35:44.195Z,100744.78
2022-11-28T03:38:16.927Z,100743.97
2022-11-28T03:40:50.568Z,100738.34
2022-11-28T03:43:23.253Z,100739.94
2022-11-28T03:45:55.033Z,100739.16
2022-11-28T03:48:27.614Z,100738.34
2022-11-28T03:51:01.758Z,100738.97
2022-11-28T03:53:37.437Z,100737.06
2022-11-28T03:56:10.576Z,100734.16
2022-11-28T03:58:45.076Z,100726.34
2022-11-28T04:01:22.654Z,100729.34
2022-11-28T04:03:56.320Z,100731.56
2022-11-28T04:06:31.113Z,100736.75
2022-11-28T04:09:04.666Z,100732.66
2022-11-28T04:11:38.406Z,100737.97
2022-11-28T04:14:13.534Z,100726.03
2022-11-28T04:16:53.584Z,100727.34
2022-11-28T04:19:29.631Z,100737.88
2022-11-28T04:22:04.084Z,100743.28
2022-11-28T04:24:37.661Z,100728.75
2022-11-28T04:27:09.735Z,100726.34
2022-11-28T04:29:43.483Z,100727.94
2022-11-28T04:32:13.816Z,100727.13
2022-11-28T04:34:44.493Z,100731.16
2022-11-28T04:37:15.974Z,100730.53
2022-11-28T04:39:46.174Z,100731.34
2022-11-28T04:42:17.881Z,100739.78
2022-11-28T04:44:50.910Z,100731.16
2022-11-28T04:47:19.313Z,100735.25
2022-11-28T04:49:48.179Z,100721.25
2022-11-28T04:52:22.428Z,100730.47
2022-11-28T04:54:58.725Z,100722.34
2022-11-28T04:57:32.828Z,100727.94
2022-11-28T05:00:05.524Z,100726.72
2022-11-28T05:02:34.783Z,100727.84
2022-11-28T05:05:02.940Z,100738.34
2022-11-28T05:07:32.173Z,100731.34
2022-11-28T05:10:00.503Z,100733.56
2022-11-28T05:12:28.319Z,100738.75
2022-11-28T05:14:56.198Z,100733.66
2022-11-28T05:17:24.016Z,100738.56
2022-11-28T05:19:51.874Z,100741.28
2022-11-28T05:22:19.717Z,100736.56
2022-11-28T05:24:48.927Z,100745.59
2022-11-28T05:27:16.978Z,100742.97
2022-11-28T05:29:51.955Z,100744.56
2022-11-28T05:32:20.187Z,100746.28
2022-11-28T05:34:48.072Z,100751.09
2022-11-28T05:37:16.687Z,100743.19
2022-11-28T05:39:44.892Z,100736.19
2022-11-28T05:42:14.419Z,100745.88
2022-11-28T05:44:42.520Z,100737.69
2022-11-28T05:47:10.731Z,100738.19
2022-11-28T05:49:38.583Z,100733.25
2022-11-28T05:52:06.569Z,100734.38
2022-11-28T05:54:34.428Z,100731.75
2022-11-28T05:57:02.906Z,100733.47
2022-11-28T05:59:32.033Z,100730.47
2022-11-28T06:02:00.116Z,100729.16
2022-11-28T06:04:28.621Z,100737.78
2022-11-28T06:06:56.551Z,100728.56
2022-11-28T06:09:26.055Z,100731.56
2022-11-28T06:11:54.515Z,100729.75
2022-11-28T06:14:22.814Z,100726.56
2022-11-28T06:16:52.096Z,100725.44
2022-11-28T06:19:20.285Z,100713.53
2022-11-28T06:21:50.948Z,100712.53
2022-11-28T06:24:18.912Z,100713.34
2022-11-28T06:26:47.393Z,100708.44
2022-11-28T06:29:15.244Z,100705.91
2022-11-28T06:31:43.400Z,100706.63
2022-11-28T06:34:16.311Z,100709.53
2022-11-28T06:36:44.512Z,100718.13
2022-11-28T06:39:14.870Z,100707.31
2022-11-28T06:41:43.595Z,100708.91
2022-11-28T06:44:14.038Z,100715.91
2022-11-28T06:46:42.845Z,100716.53
2022-11-28T06:49:13.742Z,100721.94
2022-11-28T06:51:42.608Z,100721.94
2022-11-28T06:54:10.589Z,100712.72
2022-11-28T06:56:40.504Z,100717.91
2022-11-28T06:59:08.398Z,100730.16
2022-11-28T07:01:36.294Z,100726.66
2022-11-28T07:04:04.422Z,100729.16
2022-11-28T07:06:35.364Z,100734.56
2022-11-28T07:09:03.178Z,100734.56
2022-11-28T07:11:32.880Z,100735.66
2022-11-28T07:14:03.519Z,100740.00
2022-11-28T07:16:33.918Z,100741.59
2022-11-28T07:19:02.323Z,100740.38
2022-11-28T07:21:30.931Z,100741.69
2022-11-28T07:24:01.676Z,100742.19
2022-11-28T07:26:29.884Z,100750.59
2022-11-28T07:28:59.925Z,100735.47
2022-11-28T07:31:32.129Z,100742.88
2022-11-28T07:34:02.285Z,100740.97
2022-11-28T07:36:30.592Z,100740.38
2022-11-28T07:39:01.466Z,100744.97
2022-11-28T07:41:30.098Z,100748.19
2022-11-28T07:44:00.041Z,100745.78
2022-11-28T07:46:29.785Z,100756.63
2022-11-28T07:49:01.199Z,100751.22
2022-11-28T07:51:31.157Z,100755.00
2022-11-28T07:54:01.803Z,100753.38
2022-11-28T07:56:57.139Z,100754.00
2022-11-28T07:59:20.530Z,100750.50
2022-11-28T08:01:48.805Z,100760.41
2022-11-28T08:04:16.795Z,100756.63
2022-11-28T08:06:44.695Z,100754.91
2022-11-28T08:09:13.984Z,100751.88
2022-11-28T08:11:42.992Z,100752.41
2022-11-28T08:14:11.830Z,100763.41
2022-11-28T08:16:41.329Z,100759.59
2022-11-28T08:19:09.601Z,100758.00
2022-11-28T08:21:38.926Z,100760.72
2022-11-28T08:24:08.300Z,100767.22
2022-11-28T08:26:37.794Z,100757.03
2022-11-28T08:29:05.925Z,100766.22
2022-11-28T08:31:35.546Z,100761.91
2022-11-28T08:34:06.066Z,100763.00
2022-11-28T08:36:34.641Z,100762.13
2022-11-28T08:39:22.892Z,100764.31
2022-11-28T08:41:53.541Z,100765.72
2022-11-28T08:44:21.424Z,100763.81
2022-11-28T08:46:49.483Z,100758.91
2022-11-28T08:49:17.308Z,100765.63
2022-11-28T08:51:45.193Z,100775.25
2022-11-28T08:54:13.384Z,100768.44
2022-11-28T08:56:41.270Z,100772.41
2022-11-28T08:59:11.004Z,100774.06
2022-11-28T09:01:39.572Z,100775.66
2022-11-28T09:04:07.575Z,100769.72
2022-11-28T09:06:36.692Z,100779.47
2022-11-28T09:09:04.828Z,100773.22
2022-11-28T09:11:32.984Z,100770.34
2022-11-28T09:14:01.116Z,100774.63
2022-11-28T09:16:30.442Z,100777.66
2022-11-28T09:18:59.514Z,100771.63
2022-11-28T09:21:27.800Z,100777.34
2022-11-28T09:23:57.265Z,100775.75
2022-11-28T09:26:26.349Z,100778.44
2022-11-28T09:28:54.903Z,100781.66
2022-11-28T09:31:23.160Z,100790.28
2022-11-28T09:33:52.536Z,100790.28
2022-11-28T09:36:22.889Z,100789.47
2022-11-28T09:38:51.386Z,100790.78
2022-11-28T09:41:37.163Z,100795.56
2022-11-28T09:44:11.438Z,100792.88
2022-11-28T09:46:39.900Z,100795.00
2022-11-28T09:49:21.034Z,100798.81
2022-11-28T09:51:54.038Z,100805.50
2022-11-28T09:54:30.176Z,100805.28
2022-11-28T09:56:58.227Z,100803.69
2022-11-28T09:59:28.118Z,100794.47
2022-11-28T10:02:04.961Z,100797.19
2022-11-28T10:04:42.328Z,100797.69
2022-11-28T10:07:20.603Z,100794.47
2022-11-28T10:09:58.073Z,100793.88
2022-11-28T10:12:39.601Z,100794.69
2022-11-28T10:15:20.379Z,100788.47
2022-11-28T10:17:55.823Z,100790.69
2022-11-28T10:20:28.387Z,100791.97
2022-11-28T10:22:59.172Z,100785.66
2022-11-28T10:25:31.047Z,100782.84
2022-11-28T10:27:58.925Z,100783.84
2022-11-28T10:30:28.824Z,100781.63
2022-11-28T10:33:01.880Z,100783.84
2022-11-28T10:35:40.488Z,100778.44
2022-11-28T10:38:13.993Z,100777.63
2022-11-28T10:40:51.022Z,100783.63
2022-11-28T10:43:30.171Z,100780.13
2022-11-28T10:46:09.146Z,100776.84
2022-11-28T10:48:46.744Z,100777.31
2022-11-28T10:51:26.673Z,100778.44
2022-11-28T10:54:06.141Z,100775.25
2022-11-28T10:56:44.685Z,100778.53
2022-11-28T10:59:22.367Z,100779.03
2022-11-28T11:01:52.005Z,100774.63
2022-11-28T11:04:22.902Z,100779.41
2022-11-28T11:07:16.292Z,100777.03
2022-11-28T11:09:46.904Z,100769.50
2022-11-28T11:12:21.975Z,100772.41
2022-11-28T11:14:49.926Z,100773.91
2022-11-28T11:17:36.209Z,100779.31
2022-11-28T11:20:26.970Z,100768.97
2022-11-28T11:22:57.674Z,100774.78
2022-11-28T11:25:26.934Z,100766.56
2022-11-28T11:27:57.180Z,100771.97
2022-11-28T11:30:31.116Z,100777.69
2022-11-28T11:33:01.607Z,100773.56
2022-11-28T11:35:32.287Z,100773.06
2022-11-28T11:38:18.074Z,100773.38
2022-11-28T11:40:46.189Z,100765.13
2022-11-28T11:43:29.128Z,100765.25
2022-11-28T11:46:09.089Z,100770.38
2022-11-28T11:48:39.460Z,100771.88
2022-11-28T11:51:07.557Z,100771.88
2022-11-28T11:53:36.796Z,100773.78
2022-11-28T11:56:05.542Z,100776.66
2022-11-28T11:58:48.616Z,100769.53
2022-11-28T12:01:19.467Z,100779.94
2022-11-28T12:03:54.677Z,100779.16
2022-11-28T12:06:26.201Z,100781.16
2022-11-28T12:09:03.305Z,100787.38
2022-11-28T12:11:41.270Z,100784.69
2022-11-28T12:14:27.131Z,100782.59
2022-11-28T12:17:25.551Z,100785.31
2022-11-28T12:20:07.481Z,100787.00
2022-11-28T12:22:48.846Z,100790.19
2022-11-28T12:25:26.861Z,100791.22
2022-11-28T12:28:05.273Z,100786.19
2022-11-28T12:30:49.271Z,100789.09
2022-11-28T12:33:39.131Z,100796.25
2022-11-28T12:36:13.346Z,100793.69
2022-11-28T12:39:00.859Z,100797.44
2022-11-28T12:41:57.683Z,100791.41
2022-11-28T12:44:41.094Z,100794.00
2022-11-28T12:47:17.491Z,100792.81
2022-11-28T12:49:57.359Z,100791.22
2022-11-28T12:52:39.332Z,100790.50
2022-11-28T12:55:21.850Z,100790.34
2022-11-28T12:58:00.503Z,100789.22
2022-11-28T13:00:33.460Z,100787.00
2022-11-28T13:03:12.272Z,100783.81
2022-11-28T13:05:51.683Z,100777.78
2022-11-28T13:08:33.473Z,100786.59
2022-11-28T13:11:13.624Z,100777.56
2022-11-28T13:13:47.825Z,100785.53
2022-11-28T13:16:26.493Z,100785.22
2022-11-28T13:19:03.326Z,100782.34
2022-11-28T13:21:40.981Z,100784.06
2022-11-28T13:24:18.617Z,100785.97
2022-11-28T13:26:52.500Z,100785.16
2022-11-28T13:29:34.741Z,100795.41
2022-11-28T13:32:10.279Z,100785.53
2022-11-28T13:34:39.767Z,100781.13
2022-11-28T13:40:09.481Z,100785.53
2022-11-28T13:45:34.333Z,100785.84
2022-11-28T13:51:31.851Z,100785.78
2022-11-28T13:54:45.687Z,100787.81
2022-11-28T13:57:28.547Z,100794.63
2022-11-28T14:00:04.485Z,100791.41
2022-11-28T14:02:44.485Z,100792.22
2022-11-28T14:05:29.934Z,100795.22
2022-11-28T14:07:59.036Z,100792.09
2022-11-28T14:10:50.828Z,100799.44
2022-11-28T14:13:45.281Z,100793.13
2022-11-28T14:16:28.310Z,100792.97
2022-11-28T14:19:22.073Z,100794.78
2022-11-28T14:22:01.753Z,100800.59
2022-11-28T14:25:10.294Z,100797.38
2022-11-28T14:27:42.006Z,100805.19
2022-11-28T14:30:24.951Z,100800.91
2022-11-28T14:32:57.754Z,100797.88
2022-11-28T14:36:06.562Z,100809.13
2022-11-28T14:39:02.203Z,100814.22
2022-11-28T14:41:30.075Z,100817.63
2022-11-28T14:44:46.206Z,100817.47
2022-11-28T14:47:17.362Z,100821.44
2022-11-28T14:49:45.678Z,100816.03
2022-11-28T14:52:41.129Z,100820.44
2022-11-28T14:55:20.575Z,100812.31
2022-11-28T14:57:58.208Z,100810.44
2022-11-28T15:00:28.963Z,100816.53
2022-11-28T15:03:21.165Z,100819.22
2022-11-28T15:05:51.998Z,100822.03
2022-11-28T15:08:48.647Z,100830.97
2022-11-28T15:11:36.466Z,100830.34
2022-11-28T15:14:12.914Z,100828.91
2022-11-28T15:16:50.552Z,100837.06
2022-11-28T15:19:28.181Z,100841.19
2022-11-28T15:21:56.750Z,100837.69
2022-11-28T15:24:30.555Z,100840.88
2022-11-28T15:26:59.911Z,100843.59
2022-11-28T15:29:29.734Z,100845.50
2022-11-28T15:31:59.863Z,100836.56
2022-11-28T15:34:31.047Z,100839.09
2022-11-28T15:37:01.620Z,100840.50
2022-11-28T15:39:36.581Z,100836.66
2022-11-28T15:42:06.778Z,100848.13
2022-11-28T15:44:39.148Z,100849.41
2022-11-28T15:47:19.592Z,100852.13
2022-11-28T15:49:47.592Z,100853.31
2022-11-28T15:52:18.584Z,100855.53
2022-11-28T15:54:51.444Z,100851.84
2022-11-28T15:57:20.761Z,100859.97
2022-11-28T15:59:48.665Z,100855.03
2022-11-28T16:02:22.992Z,100862.56
2022-11-28T16:04:54.557Z,100854.94
2022-11-28T16:07:22.587Z,100857.13
2022-11-28T16:09:58.504Z,100860.94
2022-11-28T16:12:27.209Z,100856.34
2022-11-28T16:15:01.335Z,100863.16
2022-11-28T16:17:33.394Z,100861.56
2022-11-28T16:20:03.696Z,100868.78
2022-11-28T16:22:36.617Z,100869.56
2022-11-28T16:25:22.793Z,100869.41
2022-11-28T16:27:53.281Z,100873.38
2022-11-28T16:30:34.755Z,100871.47
2022-11-28T16:33:02.843Z,100877.91
2022-11-28T16:35:34.273Z,100876.47
2022-11-28T16:38:06.931Z,100879.72
2022-11-28T16:40:36.411Z,100888.03
2022-11-28T16:43:06.217Z,100879.56
2022-11-28T16:45:35.071Z,100882.91
2022-11-28T16:48:09.513Z,100886.22
2022-11-28T16:50:38.449Z,100883.00
2022-11-28T16:53:06.808Z,100885.72
2022-11-28T16:55:44.658Z,100886.03
2022-11-28T16:58:16.153Z,100883.00
2022-11-28T17:00:47.795Z,100891.25
2022-11-28T17:03:49.683Z,100894.88
2022-11-28T17:06:26.103Z,100896.66
2022-11-28T17:08:54.260Z,100889.06
2022-11-28T17:11:27.740Z,100891.16
2022-11-28T17:13:57.672Z,100891.63
2022-11-28T17:16:27.609Z,100890.56
2022-11-28T17:18:55.481Z,100902.47
2022-11-28T17:21:30.213Z,100894.84
2022-11-28T17:23:58.194Z,100898.53
2022-11-28T17:26:27.480Z,100900.03
2022-11-28T17:28:55.727Z,100902.75
2022-11-28T17:31:24.774Z,100900.03
2022-11-28T17:33:52.729Z,100909.28
2022-11-28T17:36:20.678Z,100906.56
2022-11-28T17:38:48.782Z,100910.41
2022-11-28T17:41:16.864Z,100913.09
2022-11-28T17:43:46.470Z,100922.34
2022-11-28T17:46:14.338Z,100916.94
2022-11-28T17:48:42.207Z,100922.34
2022-11-28T17:51:11.190Z,100929.16
2022-11-28T17:53:39.356Z,100928.38
2022-11-28T17:56:07.964Z,100924.53
2022-11-28T17:58:35.771Z,100925.34
2022-11-28T18:01:11.127Z,100920.22
2022-11-28T18:03:39.949Z,100919.91
2022-11-28T18:06:08.527Z,100923.94
2022-11-28T18:08:36.930Z,100928.75
2022-11-28T18:11:06.674Z,100925.44
2022-11-28T18:13:35.283Z,100931.34
2022-11-28T18:16:04.990Z,100936.16
2022-11-28T18:18:34.586Z,100926.09
2022-11-28T18:21:02.431Z,100929.94
2022-11-28T18:23:30.365Z,100938.38
2022-11-28T18:25:58.347Z,100937.09
2022-11-28T18:28:26.393Z,100937.41
2022-11-28T18:30:54.268Z,100934.06
2022-11-28T18:33:23.806Z,100938.38
2022-11-28T18:35:51.667Z,100941.56
2022-11-28T18:38:19.509Z,100937.78
2022-11-28T18:40:47.444Z,100933.44
2022-11-28T18:43:15.435Z,100937.78
2022-11-28T18:45:43.378Z,100937.16
2022-11-28T18:48:11.228Z,100936.53
2022-11-28T18:50:40.441Z,100937.53
2022-11-28T18:53:08.254Z,100940.75
2022-11-28T18:55:36.571Z,100936.91
2022-11-28T18:58:04.482Z,100940.19
2022-11-28T19:00:32.339Z,100935.56
2022-11-28T19:03:00.212Z,100946.41
2022-11-28T19:05:28.087Z,100943.38
2022-11-28T19:07:58.907Z,100950.41
2022-11-28T19:10:26.832Z,100946.25
2022-11-28T19:12:54.795Z,100946.47
2022-11-28T19:15:22.740Z,100954.59
2022-11-28T19:17:50.664Z,100954.59
2022-11-28T19:20:18.929Z,100957.78
2022-11-28T19:22:47.238Z,100950.78
2022-11-28T19:25:16.852Z,100956.81
2022-11-28T19:27:44.774Z,100953.59
2022-11-28T19:30:13.935Z,100959.03
2022-11-28T19:32:41.845Z,100959.81
2022-11-28T19:35:10.043Z,100966.56
2022-11-28T19:37:38.021Z,100974.69
2022-11-28T19:40:07.318Z,100971.34
2022-11-28T19:42:36.764Z,100975.06
2022-11-28T19:45:05.226Z,100971.41
2022-11-28T19:47:33.255Z,100970.63
2022-11-28T19:50:01.135Z,100975.56
2022-11-28T19:52:29.463Z,100973.97
2022-11-28T19:54:57.447Z,100975.56
2022-11-28T19:57:26.330Z,100970.63
2022-11-28T19:59:55.543Z,100976.56
2022-11-28T20:02:23.662Z,100977.06
2022-11-28T20:04:51.551Z,100982.47
2022-11-28T20:07:19.460Z,100978.66
2022-11-28T20:09:47.508Z,100981.84
2022-11-28T20:12:15.819Z,100981.84
2022-11-28T20:14:43.666Z,100979.94
2022-11-28T20:17:12.952Z,100984.56
2022-11-28T20:19:41.157Z,100978.66
2022-11-28T20:22:09.335Z,100984.06
2022-11-28T20:24:37.218Z,100986.78
2022-11-28T20:27:05.303Z,100985.88
2022-11-28T20:29:33.433Z,100997.53
2022-11-28T20:32:01.546Z,100995.94
2022-11-28T20:34:30.860Z,100993.22
2022-11-28T20:36:59.948Z,100999.72
2022-11-28T20:39:27.806Z,101001.34
2022-11-28T20:41:55.785Z,100995.94
2022-11-28T20:44:24.047Z,101002.75
2022-11-28T20:46:52.015Z,100998.94
2022-11-28T20:49:20.415Z,101000.84
2022-11-28T20:51:50.375Z,101006.78
2022-11-28T20:54:19.375Z,101006.78
2022-11-28T20:59:35.616Z,101007.59
2022-11-28T21:02:03.563Z,101016.00
2022-11-28T21:04:32.598Z,101015.53
2022-11-28T21:07:01.823Z,101017.44
2022-11-28T21:09:29.667Z,101015.53
2022-11-28T21:11:59.199Z,101017.63
2022-11-28T21:14:28.857Z,101015.41
2022-11-28T21:16:56.891Z,101014.78
2022-11-28T21:19:24.918Z,101009.88
2022-11-28T21:21:52.945Z,101018.81
2022-11-28T21:24:22.662Z,101014.19
2022-11-28T21:26:54.008Z,101019.94
2022-11-28T21:29:22.719Z,101016.38
2022-11-28T21:31:50.765Z,101012.06
2022-11-28T21:34:19.412Z,101021.81
2022-11-28T21:36:47.526Z,101023.44
2022-11-28T21:39:17.017Z,101028.06
2022-11-28T21:41:46.398Z,101029.94
2022-11-28T21:44:14.236Z,101028.34
2022-11-28T21:46:42.168Z,101029.47
2022-11-28T21:49:10.081Z,101025.63
2022-11-28T21:51:37.970Z,101029.47
2022-11-28T21:54:06.149Z,101026.25
2022-11-28T21:56:34.060Z,101024.03
2022-11-28T21:59:04.430Z,101024.25
2022-11-28T22:01:32.455Z,101030.66
2022-11-28T22:04:02.725Z,101033.56
2022-11-28T22:06:31.418Z,101029.41
2022-11-28T22:09:03.271Z,101027.03
2022-11-28T22:11:35.434Z,101028.13
2022-11-28T22:14:04.683Z,101027.03
2022-11-28T22:16:32.608Z,101037.25
2022-11-28T22:19:01.700Z,101024.19
2022-11-28T22:24:17.627Z,101034.41
2022-11-28T22:26:45.577Z,101037.63
2022-11-28T22:29:15.112Z,101038.41
2022-11-28T22:31:43.064Z,101045.47
2022-11-28T22:34:11.137Z,101044.66
2022-11-28T22:36:39.190Z,101046.88
2022-11-28T22:39:07.282Z,101042.56
2022-11-28T22:41:35.430Z,101039.84
2022-11-28T22:44:04.226Z,101055.50
2022-11-28T22:46:34.117Z,101049.47
2022-11-28T22:49:02.805Z,101051.88
2022-11-28T22:51:31.864Z,101061.94
2022-11-28T22:54:01.258Z,101057.00
2022-11-28T22:56:29.977Z,101054.28
2022-11-28T22:58:58.016Z,101059.44
2022-11-28T23:01:29.196Z,101064.53
2022-11-28T23:03:59.066Z,101062.63
2022-11-28T23:06:29.068Z,101069.97
2022-11-28T23:08:57.631Z,101054.00
2022-11-28T23:11:27.553Z,101067.56
2022-11-28T23:13:55.934Z,101061.31
2022-11-28T23:16:25.641Z,101066.75
2022-11-28T23:18:55.465Z,101077.59
2022-11-28T23:21:27.162Z,101074.41
2022-11-28T23:23:55.015Z,101074.41
2022-11-28T23:26:25.215Z,101067.69
2022-11-28T23:28:53.375Z,101071.19
2022-11-28T23:31:23.898Z,101076.63
2022-11-28T23:33:52.623Z,101077.22
2022-11-28T23:36:22.209Z,101068.28
2022-11-28T23:38:53.274Z,101077.84
2022-11-28T23:41:21.523Z,101079.44
2022-11-28T23:43:49.840Z,101079.94
2022-11-28T23:46:19.728Z,101078.06
2022-11-28T23:48:47.962Z,101079.66
2022-11-28T23:51:17.696Z,101082.06
2022-11-28T23:53:45.860Z,101078.22
2022-11-28T23:56:17.135Z,101082.06
2022-11-28T23:58:45.656Z,101082.06
